Time;durP1;ratioP1;P1;durP2;ratioP2;P2;SDS_P1;SDS_P2;PMS_P1;PMS_P2;Temp;Humidity;BMP_temperature;BMP_pressure;BME280_temperature;BME280_humidity;BME280_pressure;Samples;Min_cycle;Max_cycle;Signal;HPM_P1;HPM_P2
2022/10/19 00:00:48;;;;;;;4.87;2.07;;;15.60;72.10;;;18.51;51.93;102731.56;5107470;28;20196;-55
2022/10/19 00:03:16;;;;;;;5.97;1.90;;;15.60;72.80;;;18.49;52.14;102733.59;5117615;28;20224;-52
2022/10/19 00:05:50;;;;;;;5.17;1.90;;;15.60;72.00;;;18.49;52.22;102730.94;5117729;28;20211;-55
2022/10/19 00:08:17;;;;;;;5.87;1.97;;;15.60;72.20;;;18.51;52.14;102734.25;5098507;28;20192;-55
2022/10/19 00:10:45;;;;;;;6.40;1.70;;;15.60;72.20;;;18.52;52.02;102733.22;5112498;28;20265;-54
2022/10/19 00:13:12;;;;;;;5.60;1.73;;;15.60;72.20;;;18.48;52.01;102739.91;5097539;28;20656;-55
2022/10/19 00:15:40;;;;;;;4.47;1.60;;;15.50;72.20;;;18.48;52.25;102737.25;5099663;28;20197;-56
2022/10/19 00:18:08;;;;;;;5.13;1.77;;;15.50;72.30;;;18.48;52.21;102734.59;5116967;28;20199;-55
2022/10/19 00:20:36;;;;;;;3.90;1.70;;;15.50;72.50;;;18.49;52.25;102736.25;5119308;27;20196;-56
2022/10/19 00:23:05;;;;;;;5.73;1.83;;;15.50;72.50;;;18.50;52.36;102735.25;5079748;28;20209;-54
2022/10/19 00:25:32;;;;;;;6.07;2.20;;;15.50;72.60;;;18.51;52.29;102736.91;5077850;28;20727;-56
2022/10/19 00:28:00;;;;;;;4.10;1.50;;;15.50;72.50;;;18.52;52.45;102735.88;5077949;28;20630;-55
2022/10/19 00:30:27;;;;;;;8.03;2.10;;;15.60;72.80;;;18.54;52.26;102733.06;5077291;28;20194;-55
2022/10/19 00:32:54;;;;;;;4.63;1.53;;;15.60;72.60;;;18.53;52.51;102737.56;5097464;28;20752;-56
2022/10/19 00:35:22;;;;;;;5.03;1.50;;;15.50;72.80;;;18.54;52.41;102733.06;5119081;28;20200;-55
2022/10/19 00:37:50;;;;;;;4.77;1.93;;;15.60;73.00;;;18.55;52.35;102738.19;5118590;27;20187;-59
2022/10/19 00:40:19;;;;;;;6.00;1.63;;;15.50;72.80;;;18.53;52.29;102737.56;5103645;28;20192;-54
2022/10/19 00:42:52;;;;;;;4.03;1.80;;;15.50;72.80;;;18.49;52.54;102733.59;5097356;28;20221;-56
2022/10/19 00:45:19;;;;;;;3.77;1.30;;;15.50;73.10;;;18.44;52.60;102738.59;5097755;28;20209;-54
2022/10/19 00:47:47;;;;;;;7.30;2.10;;;15.50;73.10;;;18.43;52.65;102741.41;5097074;28;20193;-53
2022/10/19 00:50:16;;;;;;;5.93;1.57;;;15.50;73.20;;;18.41;52.77;102744.28;5112800;28;20188;-56
2022/10/19 00:52:43;;;;;;;6.10;2.03;;;15.50;73.30;;;18.37;52.77;102734.13;5098661;28;20224;-55
2022/10/19 00:55:12;;;;;;;3.93;1.60;;;15.40;73.40;;;18.34;52.88;102747.81;5097165;28;20638;-56
2022/10/19 00:57:40;;;;;;;5.40;1.90;;;15.40;73.60;;;18.32;53.11;102740.00;5097143;28;20197;-56
2022/10/19 01:00:09;;;;;;;6.07;2.27;;;15.40;73.80;;;18.32;53.42;102734.66;5097233;28;20189;-55
2022/10/19 01:02:37;;;;;;;5.43;1.80;;;15.40;74.10;;;18.34;53.30;102726.47;5096038;28;20220;-55
2022/10/19 01:05:06;;;;;;;2.00;1.57;;;15.40;74.70;;;18.37;53.06;102718.97;5105403;28;20204;-56
2022/10/19 01:07:33;;;;;;;6.10;2.00;;;15.40;74.00;;;18.39;53.13;102724.97;5098981;28;20657;-53
2022/10/19 01:10:02;;;;;;;3.47;1.83;;;15.40;74.00;;;18.40;53.04;102723.94;5097043;28;20200;-57
2022/10/19 01:12:51;;;;;;;4.97;1.83;;;15.40;74.00;;;18.34;53.16;102727.31;5097592;28;20527;-54
2022/10/19 01:15:31;;;;;;;6.70;1.80;;;15.40;74.20;;;18.34;53.26;102732.66;5098428;28;20218;-55
2022/10/19 01:18:15;;;;;;;5.40;2.17;;;15.40;74.30;;;18.32;53.37;102734.66;5075758;28;20196;-56
2022/10/19 01:21:18;;;;;;;6.37;1.93;;;15.40;74.30;;;18.26;53.46;102730.03;5075960;28;20238;-54
2022/10/19 01:24:34;;;;;;;4.63;1.97;;;15.30;74.40;;;18.24;53.50;102732.88;5071589;28;20274;-54
2022/10/19 01:27:52;;;;;;;4.70;1.60;;;15.30;74.60;;;18.23;53.70;102733.06;5075451;28;20186;-53
2022/10/19 01:30:41;;;;;;;7.53;2.17;;;15.30;74.60;;;18.22;53.74;102728.72;5098736;28;20199;-53
2022/10/19 01:33:26;;;;;;;6.50;2.20;;;15.30;74.70;;;18.21;53.70;102724.38;5114870;28;20238;-53
2022/10/19 01:36:08;;;;;;;4.93;1.97;;;15.30;74.60;;;18.21;53.81;102732.38;5115620;28;20199;-54
2022/10/19 01:38:44;;;;;;;7.87;1.97;;;15.30;74.80;;;18.24;53.89;102737.38;5115715;28;20628;-55
2022/10/19 01:41:18;;;;;;;4.53;1.80;;;15.30;75.60;;;18.25;53.75;102734.56;5074670;28;20759;-52
2022/10/19 01:43:55;;;;;;;2.47;1.40;;;15.30;74.80;;;18.26;53.54;102740.69;5074558;28;20570;-53
2022/10/19 01:46:33;;;;;;;3.40;1.70;;;15.30;74.80;;;18.24;53.72;102742.69;5109537;28;20202;-53
2022/10/19 01:49:12;;;;;;;4.03;1.43;;;15.30;74.90;;;18.26;53.71;102746.03;5105320;28;20241;-53
2022/10/19 01:51:48;;;;;;;6.87;1.70;;;15.30;74.80;;;18.27;53.72;102734.38;5094306;28;20192;-53
2022/10/19 01:54:20;;;;;;;3.37;1.97;;;15.30;74.90;;;18.30;53.84;102742.03;5094646;28;20291;-54
2022/10/19 01:56:50;;;;;;;8.37;2.27;;;15.30;74.90;;;18.31;53.80;102741.00;5095042;28;20192;-56
2022/10/19 01:59:21;;;;;;;7.70;1.90;;;15.30;74.70;;;18.30;53.76;102731.34;5095633;28;20196;-53
2022/10/19 02:01:53;;;;;;;7.17;1.90;;;15.30;74.80;;;18.29;53.55;102719.00;5104905;28;20195;-54
2022/10/19 02:04:23;;;;;;;5.43;1.80;;;15.30;74.60;;;18.30;53.67;102720.69;5118150;28;20261;-54
2022/10/19 02:06:53;;;;;;;5.43;1.87;;;15.40;75.50;;;18.32;53.58;102717.84;5116454;28;20191;-55
2022/10/19 02:09:21;;;;;;;7.50;2.20;;;15.30;74.60;;;18.31;53.53;102717.00;5116381;28;20587;-55
2022/10/19 02:11:55;;;;;;;6.57;2.27;;;15.30;74.50;;;18.28;53.55;102717.34;5105512;28;20530;-53
2022/10/19 02:14:31;;;;;;;6.23;2.10;;;15.30;74.50;;;18.27;53.53;102718.38;5097297;28;20218;-53
2022/10/19 02:17:06;;;;;;;13.10;5.77;;;15.30;74.60;;;18.24;53.46;102721.38;5102249;28;20192;-52
2022/10/19 02:19:35;;;;;;;6.17;2.87;;;15.30;74.50;;;18.24;53.61;102724.03;5114575;28;20191;-52
2022/10/19 02:22:03;;;;;;;4.53;1.97;;;15.30;74.60;;;18.24;53.54;102726.72;5101749;28;20669;-52
2022/10/19 02:24:30;;;;;;;8.93;2.20;;;15.30;74.60;;;18.23;53.59;102730.41;5093768;28;20234;-52
2022/10/19 02:26:59;;;;;;;5.77;1.87;;;15.30;74.60;;;18.22;53.64;102728.72;5093896;28;20196;-51
2022/10/19 02:29:27;;;;;;;6.23;2.20;;;15.30;74.80;;;18.20;53.65;102728.06;5093875;28;20185;-53
2022/10/19 02:31:54;;;;;;;6.90;2.20;;;15.20;74.90;;;18.19;53.69;102724.56;5092961;28;20257;-54
2022/10/19 02:34:25;;;;;;;3.70;1.70;;;15.20;74.80;;;18.16;53.59;102724.91;5111125;28;20366;-54
2022/10/19 02:36:53;;;;;;;7.07;2.30;;;15.20;74.80;;;18.16;53.86;102732.09;5114541;28;20244;-52
2022/10/19 02:39:21;;;;;;;5.07;1.87;;;15.20;74.90;;;18.12;53.90;102733.44;5113793;28;20676;-52
2022/10/19 02:41:56;;;;;;;6.10;2.10;;;15.20;75.00;;;18.10;53.83;102730.97;5113981;28;20558;-56
2022/10/19 02:44:30;;;;;;;4.03;2.00;;;15.10;75.00;;;18.11;53.94;102734.47;5111890;28;20274;-55
2022/10/19 02:47:05;;;;;;;6.10;1.77;;;15.20;75.10;;;18.10;54.04;102738.94;5092204;28;20189;-54
2022/10/19 02:49:36;;;;;;;5.30;1.60;;;15.20;75.30;;;18.13;53.89;102740.44;5094542;28;20192;-53
2022/10/19 02:52:06;;;;;;;6.13;1.87;;;15.20;75.20;;;18.14;54.02;102742.91;5092951;28;20245;-53
2022/10/19 02:54:34;;;;;;;4.93;2.60;;;15.20;75.10;;;18.18;54.11;102740.75;5093352;28;20241;-53
2022/10/19 02:57:10;;;;;;;7.87;2.10;;;15.20;75.30;;;18.22;53.65;102739.38;5093704;28;20218;-53
2022/10/19 02:59:38;;;;;;;3.97;1.67;;;15.30;75.10;;;18.23;53.81;102738.41;5093421;28;20242;-55
2022/10/19 03:02:05;;;;;;;3.70;1.83;;;15.30;75.20;;;18.28;53.92;102744.00;5093028;28;20542;-55
2022/10/19 03:04:34;;;;;;;6.53;2.30;;;15.30;75.20;;;18.33;53.69;102746.97;5094008;28;20614;-52
2022/10/19 03:07:01;;;;;;;9.13;2.63;;;15.40;75.00;;;18.36;54.02;102751.97;5102167;28;20241;-54
2022/10/19 03:09:29;;;;;;;6.80;2.70;;;15.40;74.80;;;18.37;53.47;102748.31;5093032;28;20200;-53
2022/10/19 03:11:56;;;;;;;6.63;2.43;;;15.40;74.70;;;18.38;53.65;102749.13;5092805;28;20595;-53
2022/10/19 03:14:23;;;;;;;6.20;2.07;;;15.40;74.70;;;18.39;53.45;102746.28;5093575;28;20215;-53
2022/10/19 03:16:50;;;;;;;5.07;2.20;;;15.40;74.70;;;18.38;53.51;102744.63;5093071;28;20672;-54
2022/10/19 03:19:18;;;;;;;5.30;2.10;;;15.40;74.70;;;18.36;53.41;102743.97;5093103;28;20188;-53
2022/10/19 03:21:46;;;;;;;5.00;2.40;;;15.40;74.80;;;18.36;53.38;102751.97;5095840;28;20197;-54
2022/10/19 03:24:14;;;;;;;7.10;2.23;;;15.40;74.70;;;18.32;53.55;102745.34;5094316;28;20208;-56
2022/10/19 03:26:41;;;;;;;5.13;2.30;;;15.40;74.90;;;18.32;53.55;102752.50;5097940;28;20652;-53
2022/10/19 03:29:08;;;;;;;10.93;3.40;;;15.30;74.80;;;18.30;53.56;102752.69;5099419;28;20219;-55
2022/10/19 03:31:36;;;;;;;5.47;2.33;;;15.30;74.80;;;18.30;53.68;102754.50;5097993;28;20587;-54
2022/10/19 03:34:03;;;;;;;6.57;3.00;;;15.30;74.80;;;18.30;53.51;102758.00;5097780;28;20216;-52
2022/10/19 03:36:33;;;;;;;3.93;2.13;;;15.30;74.60;;;18.29;53.57;102761.69;5098805;28;20263;-53
2022/10/19 03:39:06;;;;;;;4.13;2.03;;;15.30;74.60;;;18.28;53.44;102757.34;5100897;28;20227;-55
2022/10/19 03:41:36;;;;;;;6.33;2.27;;;15.30;74.80;;;18.32;53.40;102760.50;5117437;28;20617;-53
2022/10/19 03:44:04;;;;;;;3.10;2.20;;;15.30;74.30;;;18.32;53.14;102764.00;5109991;28;20273;-54
2022/10/19 03:46:32;;;;;;;4.97;2.10;;;15.30;74.00;;;18.33;52.82;102759.50;5096841;28;20734;-53
2022/10/19 03:49:00;;;;;;;8.60;2.50;;;15.40;73.80;;;18.33;53.22;102762.97;5096688;28;20204;-55
2022/10/19 03:51:29;;;;;;;5.70;1.87;;;15.40;73.90;;;18.36;52.91;102761.78;5096185;28;20265;-54
2022/10/19 03:54:00;;;;;;;6.40;2.13;;;15.40;73.60;;;18.36;52.68;102762.63;5097122;28;20228;-55
2022/10/19 03:56:31;;;;;;;5.10;2.20;;;15.40;73.20;;;18.38;52.47;102762.44;5097160;28;20189;-54
2022/10/19 03:59:01;;;;;;;7.73;2.33;;;15.40;73.10;;;18.39;52.43;102761.44;5096713;28;20176;-54
2022/10/19 04:01:31;;;;;;;8.23;2.20;;;15.40;72.90;;;18.40;52.44;102763.13;5096303;28;20188;-56
2022/10/19 04:04:02;;;;;;;9.20;1.97;;;15.40;72.90;;;18.43;51.87;102762.75;5115360;28;20273;-55
2022/10/19 04:06:32;;;;;;;8.40;2.33;;;15.40;72.20;;;18.42;51.87;102766.44;5109183;28;20228;-55
2022/10/19 04:09:01;;;;;;;4.43;1.87;;;15.40;72.60;;;18.41;51.78;102762.94;5098173;28;20197;-53
2022/10/19 04:11:31;;;;;;;5.87;1.97;;;15.40;72.00;;;18.39;51.72;102761.44;5108442;28;20218;-55
2022/10/19 04:13:59;;;;;;;6.50;2.37;;;15.40;71.70;;;18.41;51.55;102760.28;5096253;28;20273;-55
2022/10/19 04:16:29;;;;;;;9.53;2.03;;;15.50;71.70;;;18.41;50.95;102767.44;5096454;28;20591;-53
2022/10/19 04:18:57;;;;;;;9.57;1.97;;;15.50;69.60;;;18.41;50.59;102770.94;5096649;28;20189;-53
2022/10/19 04:21:27;;;;;;;4.73;1.97;;;15.50;70.20;;;18.40;50.49;102761.25;5111340;28;20258;-53
2022/10/19 04:23:58;;;;;;;6.33;2.33;;;15.50;69.90;;;18.43;50.73;102774.25;5096098;28;20238;-54
2022/10/19 04:26:26;;;;;;;8.13;3.30;;;15.50;70.50;;;18.46;50.67;102773.94;5097254;28;20278;-53
2022/10/19 04:28:56;;;;;;;11.20;2.87;;;15.50;70.10;;;18.47;50.41;102770.25;5096052;28;20348;-53
2022/10/19 04:31:24;;;;;;;7.07;2.33;;;15.50;69.80;;;18.49;50.13;102783.44;5095364;28;20588;-53
2022/10/19 04:33:52;;;;;;;12.80;2.73;;;15.50;69.60;;;18.46;50.17;102781.94;5095741;28;20626;-54
2022/10/19 04:36:19;;;;;;;8.03;2.40;;;15.50;70.60;;;18.47;50.27;102788.13;5095148;28;20723;-55
2022/10/19 04:38:47;;;;;;;11.33;2.53;;;15.50;69.80;;;18.47;50.17;102782.78;5096961;28;20199;-53
2022/10/19 04:41:18;;;;;;;3.27;1.80;;;15.50;69.60;;;18.45;50.29;102785.56;5101623;28;20205;-53
2022/10/19 04:43:46;;;;;;;6.80;1.97;;;15.50;70.00;;;18.47;50.44;102786.25;5111277;28;20292;-53
2022/10/19 04:46:17;;;;;;;5.80;2.10;;;15.50;69.90;;;18.50;50.30;102790.41;5078305;28;20213;-55
2022/10/19 04:48:46;;;;;;;8.43;2.70;;;15.60;70.20;;;18.55;50.08;102785.38;5083098;28;20192;-53
2022/10/19 04:51:16;;;;;;;7.73;2.60;;;15.60;69.60;;;18.58;49.55;102785.88;5095336;28;20200;-53
2022/10/19 04:53:46;;;;;;;4.23;1.70;;;15.60;68.40;;;18.59;49.21;102784.03;5095805;28;20762;-54
2022/10/19 04:56:17;;;;;;;5.20;1.50;;;15.60;67.70;;;18.60;49.57;102785.69;5095871;28;20596;-53
2022/10/19 04:58:45;;;;;;;4.77;1.47;;;15.70;69.00;;;18.63;49.40;102785.34;5112867;28;20196;-53
2022/10/19 05:01:18;;;;;;;5.93;1.70;;;15.70;68.50;;;18.66;49.77;102791.13;5115668;28;20614;-52
2022/10/19 05:03:47;;;;;;;4.47;1.60;;;15.80;68.80;;;18.70;49.71;102789.81;5114302;28;20223;-52
2022/10/19 05:06:15;;;;;;;11.03;2.30;;;15.80;68.90;;;18.75;49.56;102790.09;5110577;28;20208;-52
2022/10/19 05:08:42;;;;;;;6.43;1.80;;;15.90;69.40;;;18.78;49.21;102789.72;5095640;28;20201;-53
2022/10/19 05:11:13;;;;;;;4.40;1.80;;;15.90;68.00;;;18.82;48.85;102799.06;5094863;28;20245;-54
2022/10/19 05:13:41;;;;;;;4.53;1.33;;;15.90;67.50;;;18.86;48.84;102792.34;5104146;28;20264;-53
2022/10/19 05:16:12;;;;;;;6.80;2.00;;;16.00;67.80;;;18.89;48.61;102796.50;5114983;28;20656;-55
2022/10/19 05:18:41;;;;;;;4.60;1.70;;;16.00;67.40;;;18.92;48.74;102791.63;5115249;28;20196;-55
2022/10/19 05:21:11;;;;;;;7.07;2.20;;;16.00;68.00;;;18.94;48.48;102794.94;5115257;28;20294;-55
2022/10/19 05:23:40;;;;;;;5.63;2.00;;;16.10;67.30;;;18.96;48.65;102788.59;5115306;28;20211;-53
2022/10/19 05:26:12;;;;;;;7.27;1.90;;;16.10;67.20;;;18.98;48.23;102789.25;5114784;28;20237;-56
2022/10/19 05:28:40;;;;;;;6.30;1.70;;;16.10;66.50;;;19.00;48.20;102787.22;5114938;28;20188;-54
2022/10/19 05:31:11;;;;;;;6.60;2.17;;;16.10;66.10;;;18.99;47.58;102780.25;5094307;28;20645;-53
2022/10/19 05:33:39;;;;;;;6.20;2.00;;;16.10;65.70;;;18.94;47.96;102776.25;5094073;28;20212;-56
2022/10/19 05:36:18;;;;;;;5.57;1.60;;;16.10;66.20;;;18.93;47.96;102777.28;5094003;28;20242;-54
2022/10/19 05:38:48;;;;;;;5.97;2.00;;;16.10;66.30;;;18.93;48.09;102777.28;5095211;28;20218;-56
2022/10/19 05:41:16;;;;;;;5.43;2.27;;;16.10;66.10;;;18.96;47.73;102777.91;5114525;28;20216;-56
2022/10/19 05:43:46;;;;;;;8.13;3.90;;;16.10;65.70;;;18.98;47.93;102773.22;5114980;28;20680;-54
2022/10/19 05:46:18;;;;;;;6.13;1.80;;;16.10;66.10;;;19.01;48.13;102772.88;5106911;28;20212;-54
2022/10/19 05:48:46;;;;;;;4.67;2.80;;;16.10;65.90;;;19.02;47.82;102774.53;5106499;28;20252;-55
2022/10/19 05:51:17;;;;;;;8.33;2.10;;;16.10;65.80;;;19.04;47.34;102767.19;5093755;28;20254;-54
2022/10/19 05:53:45;;;;;;;5.60;2.97;;;16.20;65.10;;;19.04;47.70;102767.19;5093732;28;20263;-54
2022/10/19 05:56:16;;;;;;;11.50;5.50;;;16.20;65.40;;;19.02;47.25;102770.00;5094057;28;20201;-55
2022/10/19 05:58:43;;;;;;;7.87;3.03;;;16.20;65.20;;;19.03;47.51;102770.84;5093652;28;20181;-55
2022/10/19 06:01:11;;;;;;;5.33;1.90;;;16.20;65.50;;;19.05;47.31;102767.00;5097330;28;20237;-54
2022/10/19 06:03:39;;;;;;;7.60;1.60;;;16.20;65.30;;;19.08;47.42;102761.31;5101032;28;20281;-56
2022/10/19 06:06:08;;;;;;;11.80;5.03;;;16.30;65.00;;;19.09;46.93;102770.94;5093469;28;20213;-54
2022/10/19 06:08:38;;;;;;;5.50;2.53;;;16.30;64.70;;;19.10;47.12;102769.13;5094162;28;20238;-56
2022/10/19 06:11:09;;;;;;;5.90;2.97;;;16.30;64.70;;;19.11;47.06;102773.47;5093588;28;20204;-53
2022/10/19 06:13:38;;;;;;;4.27;1.73;;;16.30;64.50;;;19.11;47.00;102773.47;5093464;28;20668;-56
2022/10/19 06:16:08;;;;;;;5.77;2.00;;;16.30;64.20;;;19.12;46.89;102775.09;5092848;28;20215;-55
2022/10/19 06:18:35;;;;;;;8.17;1.90;;;16.30;64.10;;;19.10;46.79;102766.44;5108727;28;20191;-54
2022/10/19 06:21:06;;;;;;;7.27;1.77;;;16.30;64.10;;;19.08;46.85;102780.00;5112499;28;20195;-54
2022/10/19 06:23:37;;;;;;;6.80;1.80;;;16.30;64.30;;;19.09;47.05;102778.16;5113748;28;20286;-52
2022/10/19 06:26:08;;;;;;;7.10;2.00;;;16.20;64.40;;;19.09;47.17;102772.81;5114000;28;20671;-54
2022/10/19 06:28:38;;;;;;;6.83;1.97;;;16.30;64.50;;;19.11;46.85;102786.81;5114117;28;20188;-55
2022/10/19 06:31:06;;;;;;;5.97;1.97;;;16.20;64.30;;;19.13;46.87;102777.63;5113634;28;20199;-54
2022/10/19 06:33:37;;;;;;;6.27;1.70;;;16.30;64.70;;;19.16;46.80;102787.09;5100570;28;20212;-55
2022/10/19 06:36:06;;;;;;;5.50;2.00;;;16.30;64.80;;;19.18;46.75;102795.75;5094766;28;20203;-57
2022/10/19 06:38:33;;;;;;;3.37;1.30;;;16.30;64.60;;;19.18;46.77;102796.59;5097154;28;20221;-56
2022/10/19 06:41:05;;;;;;;4.30;2.20;;;16.30;64.30;;;19.20;47.14;102805.25;5113876;28;20636;-53
2022/10/19 06:43:34;;;;;;;5.20;1.93;;;16.30;64.40;;;19.21;46.89;102806.06;5104713;28;20233;-53
2022/10/19 06:46:04;;;;;;;10.93;3.47;;;16.40;64.40;;;19.24;46.69;102811.03;5098211;28;20204;-54
2022/10/19 06:48:31;;;;;;;5.30;2.00;;;16.40;64.40;;;19.29;46.83;102811.34;5094340;28;20602;-53
2022/10/19 06:51:02;;;;;;;5.87;3.07;;;16.40;64.40;;;19.32;46.71;102813.66;5093508;28;20192;-52
2022/10/19 06:53:34;;;;;;;11.37;6.83;;;16.40;64.20;;;19.34;46.76;102807.13;5093535;28;20216;-53
2022/10/19 06:56:05;;;;;;;10.03;5.20;;;16.40;64.10;;;19.36;46.80;102805.13;5092028;28;20199;-55
2022/10/19 06:58:35;;;;;;;7.60;4.80;;;16.50;64.20;;;19.41;46.73;102809.94;5111988;28;20271;-54
2022/10/19 07:01:04;;;;;;;5.97;2.40;;;16.50;64.10;;;19.44;46.51;102806.91;5112660;28;20188;-57
2022/10/19 07:03:32;;;;;;;4.67;2.50;;;16.50;63.90;;;19.45;46.57;102808.53;5113252;28;20272;-55
2022/10/19 07:06:02;;;;;;;4.13;2.30;;;16.60;64.00;;;19.49;46.18;102815.19;5110110;28;20285;-54
2022/10/19 07:08:32;;;;;;;4.73;2.23;;;16.60;63.80;;;19.52;46.42;102818.31;5108127;28;20541;-56
2022/10/19 07:11:05;;;;;;;9.13;3.57;;;16.60;63.80;;;19.54;46.02;102815.47;5089458;28;20196;-57
2022/10/19 07:13:34;;;;;;;4.73;2.90;;;16.60;63.70;;;19.56;46.09;102813.47;5072474;28;20270;-56
2022/10/19 07:16:05;;;;;;;5.67;3.17;;;16.60;63.70;;;19.57;45.88;102813.25;5073342;28;20204;-56
2022/10/19 07:18:35;;;;;;;8.70;2.93;;;16.70;63.30;;;19.61;45.84;102813.75;5072784;28;20464;-55
2022/10/19 07:21:05;;;;;;;12.17;9.10;;;16.70;63.50;;;19.63;46.29;102822.41;5073960;28;20565;-56
2022/10/19 07:23:35;;;;;;;5.30;2.60;;;16.70;63.80;;;19.68;45.77;102819.19;5094940;28;20220;-53
2022/10/19 07:26:11;;;;;;;4.07;1.80;;;16.70;63.30;;;19.70;45.88;102825.16;5112954;28;20203;-53
2022/10/19 07:28:39;;;;;;;8.37;1.90;;;16.70;63.00;;;19.70;45.70;102833.19;5109081;28;20263;-55
2022/10/19 07:31:09;;;;;;;5.33;1.77;;;16.80;63.00;;;19.70;45.60;102828.69;5091813;28;20192;-52
2022/10/19 07:33:37;;;;;;;4.70;1.80;;;16.80;62.80;;;19.73;45.71;102833.63;5092917;28;20212;-55
2022/10/19 07:36:08;;;;;;;4.87;1.90;;;16.70;62.90;;;19.76;45.65;102830.59;5093728;28;20234;-53
2022/10/19 07:38:36;;;;;;;4.63;1.70;;;16.80;63.10;;;19.81;45.56;102833.56;5103264;28;20199;-58
2022/10/19 07:41:08;;;;;;;3.83;1.77;;;16.80;63.10;;;19.86;45.36;102841.88;5093942;28;20637;-55
2022/10/19 07:43:36;;;;;;;5.27;2.20;;;16.90;62.90;;;19.89;45.57;102836.16;5095364;28;20212;-54
2022/10/19 07:46:07;;;;;;;6.37;2.80;;;16.90;62.60;;;19.93;45.12;102840.09;5078005;28;20279;-55
2022/10/19 07:48:35;;;;;;;3.57;2.23;;;16.90;62.20;;;19.97;44.89;102837.88;5080375;28;20219;-55
2022/10/19 07:51:06;;;;;;;6.93;2.10;;;16.90;61.80;;;19.99;44.44;102839.34;5097182;28;20223;-55
2022/10/19 07:53:35;;;;;;;6.23;2.57;;;16.90;61.90;;;20.00;44.34;102846.38;5093533;28;20221;-55
2022/10/19 07:56:04;;;;;;;4.13;1.40;;;16.90;61.70;;;20.00;44.82;102833.00;5093276;28;20193;-55
2022/10/19 07:58:35;;;;;;;5.47;1.63;;;17.00;61.80;;;20.00;43.74;102845.53;5091942;28;20668;-54
2022/10/19 08:01:06;;;;;;;5.03;1.73;;;17.00;60.30;;;19.88;43.66;102839.81;5092408;28;20628;-55
2022/10/19 08:03:35;;;;;;;4.03;1.67;;;16.90;59.70;;;19.85;44.12;102848.22;5093541;28;20228;-55
2022/10/19 08:06:23;;;;;;;5.53;3.53;;;16.90;60.00;;;19.87;44.03;102840.81;5093248;28;20291;-56
2022/10/19 08:08:52;;;;;;;5.60;2.00;;;16.90;60.00;;;19.94;43.87;102844.47;5099226;28;20202;-55
2022/10/19 08:11:23;;;;;;;3.27;1.43;;;17.00;59.80;;;20.01;43.14;102837.34;5108385;28;20258;-54
2022/10/19 08:13:52;;;;;;;7.53;2.70;;;17.00;59.30;;;20.08;42.84;102837.44;5095899;28;20215;-56
2022/10/19 08:16:24;;;;;;;6.93;1.70;;;17.00;59.60;;;20.11;42.41;102843.22;5095761;28;20264;-55
2022/10/19 08:18:56;;;;;;;6.03;1.60;;;17.00;58.70;;;20.17;42.97;102852.38;5107904;28;20253;-54
2022/10/19 08:21:24;;;;;;;3.13;1.43;;;17.00;59.10;;;20.23;42.91;102846.28;5111542;28;20293;-55
2022/10/19 08:23:51;;;;;;;5.50;1.90;;;17.10;59.10;;;20.27;42.85;102852.13;5095661;28;20205;-55
2022/10/19 08:26:19;;;;;;;4.17;1.60;;;17.10;59.10;;;20.31;42.27;102850.72;5095457;28;20208;-54
2022/10/19 08:28:47;;;;;;;3.27;1.90;;;17.20;58.70;;;20.35;41.98;102847.47;5095648;28;20650;-56
2022/10/19 08:31:20;;;;;;;2.87;1.80;;;17.20;58.50;;;20.40;42.39;102854.94;5097685;28;20520;-54
2022/10/19 08:33:49;;;;;;;5.37;2.17;;;17.20;58.50;;;20.43;42.07;102857.25;5116030;28;20660;-54
2022/10/19 08:36:18;;;;;;;2.97;1.47;;;17.30;58.50;;;20.46;41.97;102859.56;5116216;28;20533;-56
2022/10/19 08:38:47;;;;;;;5.97;1.83;;;17.30;58.30;;;20.47;42.28;102845.97;5116099;28;20733;-53
2022/10/19 08:41:28;;;;;;;6.40;2.93;;;17.30;58.20;;;20.49;41.67;102845.81;5129216;27;20188;-57
2022/10/19 08:44:15;;;;;;;4.27;2.00;;;17.40;57.90;;;20.54;41.77;102848.75;5093230;28;20219;-55
2022/10/19 08:46:57;;;;;;;8.27;3.80;;;17.40;57.90;;;20.59;40.81;102849.00;5113549;28;20196;-57
2022/10/19 08:49:31;;;;;;;5.70;3.23;;;17.40;56.90;;;20.64;41.29;102847.41;5095952;28;20204;-57
2022/10/19 08:52:06;;;;;;;5.70;2.10;;;17.40;57.10;;;20.64;40.75;102851.94;5088935;28;20290;-53
2022/10/19 08:54:45;;;;;;;3.23;1.90;;;17.40;57.10;;;20.62;40.49;102849.47;5094702;28;20223;-55
2022/10/19 08:57:38;;;;;;;5.37;2.07;;;17.50;57.00;;;20.68;41.40;102850.56;5093924;28;20192;-55
2022/10/19 09:00:16;;;;;;;4.10;1.50;;;17.50;57.30;;;20.80;40.67;102851.72;5094815;28;20193;-54
2022/10/19 09:03:02;;;;;;;1.97;1.30;;;17.50;57.10;;;20.87;40.94;102850.75;5091228;28;20300;-54
2022/10/19 09:05:43;;;;;;;4.93;1.70;;;17.60;56.90;;;20.98;40.63;102852.13;5093649;28;20208;-57
2022/10/19 09:08:12;;;;;;;12.40;9.67;;;17.70;56.40;;;21.12;40.09;102853.09;5092563;28;20220;-57
2022/10/19 09:10:49;;;;;;;6.73;4.00;;;17.80;56.40;;;21.27;40.39;102854.69;5092890;28;20200;-54
2022/10/19 09:13:34;;;;;;;3.27;1.90;;;17.90;56.70;;;21.40;39.67;102844.06;5094604;28;20220;-57
2022/10/19 09:16:16;;;;;;;5.37;1.60;;;18.00;56.20;;;21.58;39.58;102841.72;5092400;28;20210;-55
2022/10/19 09:18:48;;;;;;;3.57;2.17;;;18.10;55.80;;;21.73;38.85;102846.19;5093948;28;20208;-57
2022/10/19 09:21:20;;;;;;;5.10;1.80;;;18.20;55.60;;;21.91;38.55;102838.47;5092480;28;20242;-54
2022/10/19 09:24:07;;;;;;;6.00;2.57;;;18.30;55.30;;;22.01;37.81;102844.31;5096104;28;20213;-54
2022/10/19 09:26:52;;;;;;;4.50;1.70;;;18.40;53.70;;;21.97;37.42;102851.09;5093506;28;21972;-57
2022/10/19 09:29:28;;;;;;;4.20;1.87;;;18.50;54.40;;;21.95;37.37;102848.59;5094487;28;20208;-55
2022/10/19 09:32:02;;;;;;;4.03;1.70;;;18.60;53.50;;;22.04;37.75;102843.91;5092546;28;20203;-54
2022/10/19 09:34:36;;;;;;;4.10;1.77;;;18.70;53.30;;;22.27;37.96;102844.44;5091141;28;20257;-56
2022/10/19 09:37:03;;;;;;;3.23;1.77;;;18.80;53.80;;;22.46;37.04;102843.69;5092252;28;20299;-56
2022/10/19 09:39:31;;;;;;;5.23;1.80;;;18.90;53.00;;;22.55;36.45;102837.13;5094214;28;20267;-55
2022/10/19 09:42:09;;;;;;;2.60;1.27;;;19.00;52.10;;;22.83;36.65;102839.69;5093547;28;20550;-55
2022/10/19 09:44:37;;;;;;;3.73;1.60;;;19.10;52.60;;;22.97;36.24;102837.84;5092066;28;20349;-54
2022/10/19 09:47:28;;;;;;;10.00;3.97;;;19.20;51.90;;;22.92;35.66;102837.66;5092344;28;20213;-53
2022/10/19 09:50:17;;;;;;;6.73;2.40;;;19.40;51.60;;;22.82;36.10;102838.84;5093533;28;20254;-57
2022/10/19 09:52:46;;;;;;;2.80;1.30;;;19.40;51.60;;;22.81;35.64;102837.22;5092527;28;20227;-57
2022/10/19 09:55:27;;;;;;;3.97;1.50;;;19.40;50.50;;;22.73;34.59;102841.94;5091665;28;20219;-57
2022/10/19 09:58:04;;;;;;;4.07;1.40;;;19.40;49.90;;;22.51;34.84;102835.84;5092136;28;20238;-56
2022/10/19 10:00:41;;;;;;;3.13;1.17;;;19.30;48.60;;;22.29;35.21;102838.88;5096177;28;20200;-57
2022/10/19 10:03:25;;;;;;;3.07;1.70;;;19.20;48.80;;;22.20;36.10;102835.53;5100780;28;20224;-54
2022/10/19 10:05:57;;;;;;;4.23;1.50;;;19.20;50.20;;;22.29;35.84;102831.66;5085125;28;20203;-56
2022/10/19 10:08:28;;;;;;;3.50;1.50;;;19.10;50.30;;;22.46;35.98;102832.13;5092506;28;20223;-57
2022/10/19 10:11:08;;;;;;;4.30;2.40;;;19.20;50.70;;;22.67;35.87;102830.16;5085514;28;20696;-55
2022/10/19 10:13:38;;;;;;;3.73;1.40;;;19.20;50.60;;;22.80;35.22;102830.19;5079762;28;20693;-57
2022/10/19 10:16:13;;;;;;;4.37;2.50;;;19.30;49.90;;;22.82;34.75;102822.72;5090614;28;20201;-55
2022/10/19 10:18:54;;;;;;;5.10;2.33;;;19.30;49.60;;;22.81;35.16;102823.78;5084224;28;20218;-57
2022/10/19 10:21:27;;;;;;;4.30;1.47;;;19.30;50.00;;;22.80;35.30;102818.59;5077030;28;20216;-59
2022/10/19 10:24:05;;;;;;;7.77;4.13;;;19.40;50.00;;;22.64;35.46;102814.44;5083377;28;20220;-56
2022/10/19 10:26:39;;;;;;;5.63;3.80;;;19.40;49.70;;;22.55;35.73;102823.69;5090714;28;20556;-59
2022/10/19 10:29:19;;;;;;;8.80;1.70;;;19.40;50.10;;;22.43;35.79;102819.94;5093280;28;20204;-56
2022/10/19 10:31:51;;;;;;;4.17;1.43;;;19.30;49.70;;;22.33;36.13;102824.84;5089957;28;20194;-58